Leandra — V2EB4 — position and weather

sailwx.info

Track history (hours):
 
Tides and Currents Weather Stations Pressure Air Temp Water Temp Dewpoint Dewpoint Depression Visibility Wind Speed Wind Dir Waves Ship Positions

Leandra

Last reported at 2016-Aug-27 23:31 UTC. Time now 2016-Aug-30 18:50 UTC.
Position N 29°39' W 094°58'.

Length 146 m; draft 6 m.

Type: Ship. MMSI: 305375000.

Date/timePositionNaut miles runAvg speedWind from/ knotsBaromVisibWave heightAir tempDewpointWater temp
2016-Aug-27 23:31N 29°39' W 094°58'  
2016-Aug-20 11:23N 38°23' W 074°37'2211.8
2016-Aug-20 09:31N 38°40' W 074°55'1313.7
2016-Aug-20 08:33N 38°50' W 075°05'1313.0
2016-Aug-20 07:34N 39°03' W 075°10'1313.4
2016-Aug-20 06:33N 39°14' W 075°19'1212.1
2016-Aug-20 05:33N 39°23' W 075°29'10 9.5
2016-Aug-20 04:33N 39°33' W 075°33'8 7.9
2016-Aug-20 03:33N 39°40' W 075°32'3 2.4
2016-Aug-20 02:27N 39°43' W 075°31'0 0.0
2016-Aug-20 01:33N 39°43' W 075°31'0 0.0
2016-Aug-20 00:30N 39°43' W 075°31'0 0.0
2016-Aug-19 23:33N 39°43' W 075°31'0 0.0
2016-Aug-19 22:32N 39°43' W 075°31'0 0.0
2016-Aug-19 21:33N 39°43' W 075°31'0 0.0
2016-Aug-19 20:30N 39°43' W 075°31'0 0.0
2016-Aug-19 19:33N 39°43' W 075°31'0 0.0
2016-Aug-19 18:33N 39°43' W 075°31'0 0.0
2016-Aug-19 17:33N 39°43' W 075°31'0 0.0
2016-Aug-19 16:33N 39°43' W 075°31'0 0.0
2016-Aug-19 15:33N 39°43' W 075°31'0 0.0
2016-Aug-19 14:33N 39°43' W 075°31'0 0.0
2016-Aug-19 13:33N 39°43' W 075°31'0 0.0
2016-Aug-19 12:33N 39°43' W 075°31'0 0.0
2016-Aug-19 11:33N 39°43' W 075°31'0 0.0
2016-Aug-19 10:32N 39°43' W 075°31'0 0.0
2016-Aug-19 09:32N 39°43' W 075°31'0 0.0
2016-Aug-19 08:31N 39°43' W 075°31'0 0.0
2016-Aug-19 07:33N 39°43' W 075°31'0 0.0
2016-Aug-19 06:33N 39°43' W 075°31'0 0.0
2016-Aug-19 05:33N 39°43' W 075°31'0 0.0
2016-Aug-19 04:33N 39°43' W 075°31'0 0.0
2016-Aug-19 03:33N 39°43' W 075°31'0 0.0
2016-Aug-19 02:33N 39°43' W 075°31'0 0.0
2016-Aug-19 01:31N 39°43' W 075°31'0 0.0
2016-Aug-19 00:33N 39°43' W 075°31'0 0.0
2016-Aug-18 23:33N 39°43' W 075°31'0 0.0
2016-Aug-18 22:33N 39°43' W 075°31'0 0.0
2016-Aug-18 21:33N 39°43' W 075°31'5 5.0
2016-Aug-18 20:34N 39°38' W 075°34'7 6.9
2016-Aug-18 19:33N 39°32' W 075°33'7 7.1
2016-Aug-18 18:33N 39°25' W 075°30'9 8.5
2016-Aug-18 17:33N 39°18' W 075°23'9 9.3
2016-Aug-18 16:33N 39°11' W 075°16'  
Track history (hours):
 
Tides and Currents Weather Stations Pressure Air Temp Water Temp Dewpoint Dewpoint Depression Visibility Wind Speed Wind Dir Waves Ship Positions

Leandra

Last reported at 2016-Aug-27 23:31 UTC. Time now 2016-Aug-30 18:50 UTC.
Position N 29°39' W 094°58'.

Length 146 m; draft 6 m.

Type: Ship. MMSI: 305375000.

Date/timePositionNaut miles runAvg speedWind from/ knotsBaromVisibWave heightAir tempDewpointWater temp
2016-Aug-27 23:31N 29°39' W 094°58'  
2016-Aug-20 11:23N 38°23' W 074°37'2211.8
2016-Aug-20 09:31N 38°40' W 074°55'1313.7
2016-Aug-20 08:33N 38°50' W 075°05'1313.0
2016-Aug-20 07:34N 39°03' W 075°10'1313.4
2016-Aug-20 06:33N 39°14' W 075°19'1212.1
2016-Aug-20 05:33N 39°23' W 075°29'10 9.5
2016-Aug-20 04:33N 39°33' W 075°33'8 7.9
2016-Aug-20 03:33N 39°40' W 075°32'3 2.4
2016-Aug-20 02:27N 39°43' W 075°31'0 0.0
2016-Aug-20 01:33N 39°43' W 075°31'0 0.0
2016-Aug-20 00:30N 39°43' W 075°31'0 0.0
2016-Aug-19 23:33N 39°43' W 075°31'0 0.0
2016-Aug-19 22:32N 39°43' W 075°31'0 0.0
2016-Aug-19 21:33N 39°43' W 075°31'0 0.0
2016-Aug-19 20:30N 39°43' W 075°31'0 0.0
2016-Aug-19 19:33N 39°43' W 075°31'0 0.0
2016-Aug-19 18:33N 39°43' W 075°31'0 0.0
2016-Aug-19 17:33N 39°43' W 075°31'0 0.0
2016-Aug-19 16:33N 39°43' W 075°31'0 0.0
2016-Aug-19 15:33N 39°43' W 075°31'0 0.0
2016-Aug-19 14:33N 39°43' W 075°31'0 0.0
2016-Aug-19 13:33N 39°43' W 075°31'0 0.0
2016-Aug-19 12:33N 39°43' W 075°31'0 0.0
2016-Aug-19 11:33N 39°43' W 075°31'0 0.0
2016-Aug-19 10:32N 39°43' W 075°31'0 0.0
2016-Aug-19 09:32N 39°43' W 075°31'0 0.0
2016-Aug-19 08:31N 39°43' W 075°31'0 0.0
2016-Aug-19 07:33N 39°43' W 075°31'0 0.0
2016-Aug-19 06:33N 39°43' W 075°31'0 0.0
2016-Aug-19 05:33N 39°43' W 075°31'0 0.0
2016-Aug-19 04:33N 39°43' W 075°31'0 0.0
2016-Aug-19 03:33N 39°43' W 075°31'0 0.0
2016-Aug-19 02:33N 39°43' W 075°31'0 0.0
2016-Aug-19 01:31N 39°43' W 075°31'0 0.0
2016-Aug-19 00:33N 39°43' W 075°31'0 0.0
2016-Aug-18 23:33N 39°43' W 075°31'0 0.0
2016-Aug-18 22:33N 39°43' W 075°31'0 0.0
2016-Aug-18 21:33N 39°43' W 075°31'5 5.0
2016-Aug-18 20:34N 39°38' W 075°34'7 6.9
2016-Aug-18 19:33N 39°32' W 075°33'7 7.1
2016-Aug-18 18:33N 39°25' W 075°30'9 8.5
2016-Aug-18 17:33N 39°18' W 075°23'9 9.3
2016-Aug-18 16:33N 39°11' W 075°16'  

Dump ship's entire track history